Data for 08/15/2007

Time Sea-Level Adjusted Pressure Absolute Pressure Temperature Relative Humidity Dew Point   
(mb) (inHg) (mb) (inHg) (C) (F) (%) (C) (F)
00:05 1018 30.06 848 25.04 17.8 64.1 36 2.7 36.8
00:10 1018 30.06 848 25.04 18.2 64.7 39 4.2 39.5
00:15 1018 30.06 848 25.04 18.6 65.4 34 2.6 36.7
00:20 1018 30.06 848 25.04 18 64.4 38 3.7 38.7
00:25 1019 30.09 848 25.04 17.5 63.5 36 2.5 36.5
00:30 1019 30.09 848 25.04 17.8 64.1 35 2.1 35.8
00:35 1019 30.09 848 25.04 18 64.4 35 2.3 36.2
00:40 1019 30.09 848 25.04 17.7 63.9 35 2.2 36
00:45 1019 30.09 848 25.04 17.4 63.3 37 2.6 36.6
00:50 1019 30.09 848 25.04 17.3 63.2 34 1.6 34.9
00:55 1019 30.09 848 25.04 17.5 63.6 34 1.6 34.9
01:00 1019 30.09 848 25.04 17.5 63.5 34 1.6 34.8
01:05 1019 30.09 848 25.04 17.8 64 32 0.9 33.6
01:10 1019 30.09 848 25.04 18.2 64.7 31 0.8 33.5
01:15 1019 30.09 848 25.04 18.4 65.1 31 1 33.9
01:20 1019 30.09 848 25.04 18.3 64.9 31 1.1 34
01:25 1019 30.09 848 25.04 18.2 64.7 31 0.9 33.6
01:30 1019 30.09 848 25.04 18.3 65 32 1.4 34.5
01:35 1019 30.09 848 25.04 18 64.4 34 2 35.6
01:40 1019 30.09 848 25.04 17.6 63.7 33 1.4 34.5
01:45 1019 30.09 848 25.04 17.5 63.4 33 1.2 34.2
01:50 1019 30.09 848 25.04 17.7 63.9 38 3.4 38.1
01:55 1019 30.09 848 25.04 18 64.3 32 1.2 34.2
02:00 1019 30.09 848 25.04 17.8 64 39 3.7 38.6
02:05 1019 30.09 848 25.04 17.6 63.7 33 1.3 34.3
02:10 1019 30.09 848 25.04 17.7 63.9 38 3.3 38
02:15 1019 30.09 848 25.04 17.8 64 33 1.3 34.3
02:20 1019 30.09 848 25.04 17.6 63.7 34 1.8 35.3
02:25 1019 30.09 848 25.04 17.7 63.9 32 1.2 34.1
02:30 1019 30.09 848 25.04 18 64.3 33 1.6 35
02:35 1019 30.09 848 25.04 17.5 63.6 43 5 40.9
02:40 1019 30.09 848 25.04 17.2 62.9 35 1.7 35
02:45 1019 30.09 848 25.04 17 62.6 38 2.7 36.8
02:50 1019 30.09 848 25.04 16.9 62.5 34 1.2 34.1
02:55 1019 30.09 848 25.04 16.9 62.3 40 3.3 37.9
03:00 1019 30.09 848 25.04 16.6 61.9 40 3.1 37.5
03:05 1019 30.09 848 25.04 16.8 62.2 34 1.1 34
03:10 1019 30.09 849 25.07 16.7 62 33 0.6 33
03:15 1019 30.09 849 25.07 16.7 62.1 37 2.2 35.9
03:20 1019 30.09 849 25.07 16.9 62.3 32 0.3 32.6
03:25 1019 30.09 849 25.07 17.3 63.2 32 0.7 33.2
03:30 1019 30.09 849 25.07 17.4 63.2 35 1.9 35.4
03:35 1019 30.09 849 25.07 17.5 63.6 31 0.3 32.5
03:40 1019 30.09 849 25.07 17.9 64.1 33 1.3 34.4
03:45 1019 30.09 849 25.07 17.2 62.9 38 2.8 37
03:50 1019 30.09 849 25.07 16.6 61.8 36 1.7 35
03:55 1019 30.09 849 25.07 16 60.8 38 1.8 35.2
04:00 1020 30.12 849 25.07 15.6 60 39 1.8 35.2
04:05 1020 30.12 849 25.07 15.5 59.8 40 1.9 35.4
04:10 1020 30.12 849 25.07 15.4 59.8 35 0.3 32.5
04:15 1020 30.12 849 25.07 15.9 60.5 36 1 33.8
04:20 1020 30.12 849 25.07 15.7 60.2 35 0.3 32.5
04:25 1020 30.12 849 25.07 15.6 60.1 38 1.4 34.5
04:30 1020 30.12 849 25.07 15.3 59.5 37 0.9 33.7
04:35 1020 30.12 849 25.07 15.3 59.6 37 0.9 33.7
04:40 1020 30.12 849 25.07 15.3 59.6 36 0.3 32.5
04:45 1020 30.12 849 25.07 15.7 60.3 34 0 32.1
04:50 1020 30.12 849 25.07 16.2 61.1 34 0.6 33
04:55 1020 30.12 849 25.07 16 60.9 35 0.7 33.2
05:00 1020 30.12 849 25.07 15.5 59.9 36 0.6 33
05:05 1020 30.12 849 25.07 15.3 59.6 37 0.8 33.4
05:10 1020 30.12 849 25.07 15.3 59.5 36 0.6 33
05:15 1020 30.12 849 25.07 15.4 59.6 36 0.5 32.8
05:20 1020 30.12 849 25.07 15.5 59.9 35 0.2 32.4
05:25 1020 30.12 849 25.07 15.8 60.4 34 0.1 32.2
05:30 1020 30.12 849 25.07 15.9 60.7 34 0.3 32.6
05:35 1020 30.12 849 25.07 15.9 60.6 34 0.2 32.3
05:40 1020 30.12 849 25.07 16 60.8 37 1.5 34.8
05:45 1020 30.12 849 25.07 15.9 60.6 34 0.1 32.2
05:50 1020 30.12 849 25.07 16.2 61.1 34 0.6 33
05:55 1020 30.12 849 25.07 16 60.8 43 3.6 38.4
06:00 1020 30.12 849 25.07 15.9 60.6 36 0.8 33.4
06:05 1020 30.12 849 25.07 15.6 60 36 0.7 33.2
06:10 1020 30.12 849 25.07 15.8 60.4 34 0 32.1
06:15 1020 30.12 849 25.07 16.1 61 33 -0.3 31.5
06:20 1020 30.12 849 25.07 16.2 61.1 33 0.2 32.4
06:25 1020 30.12 849 25.07 15.8 60.4 36 0.8 33.5
06:30 1020 30.12 849 25.07 15.4 59.6 35 0.2 32.4
06:35 1020 30.12 849 25.07 15.4 59.7 35 0.2 32.4
06:40 1020 30.12 849 25.07 15.3 59.6 35 0.1 32.1
06:45 1020 30.12 849 25.07 15.4 59.7 35 0.2 32.4
06:50 1020 30.12 849 25.07 15.3 59.5 35 0.1 32.3
06:55 1020 30.12 849 25.07 15.3 59.6 37 0.6 33.1
07:00 1020 30.12 850 25.1 15.6 60 34 0 32
07:05 1020 30.12 850 25.1 15.9 60.6 33 -0.2 31.7
07:10 1021 30.15 850 25.1 15.9 60.6 33 -0.2 31.6
07:15 1021 30.15 850 25.1 16 60.8 33 -0.2 31.6
07:20 1021 30.15 850 25.1 16.3 61.3 34 0.3 32.5
07:25 1021 30.15 850 25.1 16.4 61.5 32 -0.4 31.4
07:30 1021 30.15 850 25.1 16.5 61.7 42 3.6 38.4
07:35 1021 30.15 850 25.1 16.1 61 34 0.1 32.3
07:40 1021 30.15 850 25.1 16.6 61.8 31 -0.4 31.3
07:45 1021 30.15 850 25.1 16.8 62.2 34 0.9 33.6
07:50 1021 30.15 850 25.1 16.4 61.6 44 4.3 39.7
07:55 1021 30.15 850 25.1 16 60.8 37 1.3 34.4
08:00 1021 30.15 850 25.1 15.7 60.2 49 5.1 41.2
08:05 1021 30.15 850 25.1 15.7 60.2 38 1.4 34.6
08:10 1021 30.15 850 25.1 15.6 60.1 37 1.1 34
08:15 1021 30.15 850 25.1 15.7 60.3 39 1.8 35.2
08:20 1021 30.15 850 25.1 15.7 60.3 37 1.4 34.5
08:25 1021 30.15 850 25.1 15.9 60.6 38 1.8 35.2
08:30 1021 30.15 850 25.1 15.9 60.7 43 3.3 38
08:35 1021 30.15 850 25.1 16.2 61.1 46 4.5 40.1
08:40 1021 30.15 850 25.1 16.5 61.6 47 5.3 41.6
08:45 1021 30.15 850 25.1 16.2 61.2 46 4.8 40.6
08:50 1021 30.15 850 25.1 16.7 62 33 0.4 32.6
08:55 1021 30.15 850 25.1 17.5 63.4 35 1.8 35.3
09:00 1021 30.15 850 25.1 17.8 64 39 3.7 38.6
09:05 1021 30.15 850 25.1 18.1 64.6 37 3.1 37.7
09:10 1021 30.15 850 25.1 18.3 64.9 37 3.5 38.3
09:15 1021 30.15 850 25.1 18.3 64.9 37 3.4 38.1
09:20 1021 30.15 850 25.1 18.5 65.2 39 4.5 40.2
09:25 1021 30.15 850 25.1 18.7 65.7 38 4.4 40
09:30 1021 30.15 850 25.1 18.9 66.1 40 5.2 41.3
09:35 1021 30.15 850 25.1 19.6 67.2 36 4.4 39.9
09:40 1021 30.15 850 25.1 20.5 69 34 4.4 40
09:45 1021 30.15 850 25.1 21.3 70.3 29 2.6 36.7
09:50 1021 30.15 850 25.1 22 71.6 31 4.1 39.3
09:55 1021 30.15 850 25.1 22.4 72.3 30 4 39.3
10:00 1021 30.15 850 25.1 22.9 73.2 28 3.8 38.9
10:05 1021 30.15 850 25.1 23.1 73.6 27 3.5 38.4
10:10 1021 30.15 850 25.1 23.1 73.5 28 3.6 38.4
10:15 1021 30.15 850 25.1 22.9 73.3 28 3.8 38.8
10:20 1021 30.15 850 25.1 23.3 74 28 4.2 39.6
10:25 1021 30.15 850 25.1 23 73.5 30 4.6 40.2
10:30 1021 30.15 850 25.1 22.9 73.2 29 4.4 39.9
10:35 1021 30.15 850 25.1 23 73.4 28 3.6 38.4
10:40 1021 30.15 850 25.1 23.6 74.5 29 4.6 40.4
10:45 1021 30.15 850 25.1 23.9 74.9 26 3.3 37.9
10:50 1021 30.15 850 25.1 24.6 76.4 25 3.5 38.4
10:55 1021 30.15 850 25.1 24.8 76.6 25 3.5 38.3
11:00 1021 30.15 850 25.1 24.7 76.5 24 3.2 37.8
11:05 1021 30.15 850 25.1 24.1 75.3 27 4 39.3
11:10 1021 30.15 850 25.1 24.1 75.4 25 3.1 37.5
11:15 1021 30.15 850 25.1 23.9 75 24 2.4 36.4
11:20 1021 30.15 850 25.1 23.8 74.8 24 2.4 36.4
11:25 1021 30.15 850 25.1 23.9 75 25 2.9 37.2
11:30 1021 30.15 850 25.1 24.6 76.2 22 1.9 35.4
11:35 1021 30.15 850 25.1 24.1 75.4 24 2.7 36.9
11:40 1021 30.15 850 25.1 24.5 76.1 25 3.2 37.8
11:45 1021 30.15 850 25.1 25.7 78.2 23 3 37.4
11:50 1021 30.15 850 25.1 24.9 76.7 24 3 37.4
11:55 1021 30.15 850 25.1 25.2 77.3 24 3.1 37.7
12:00 1021 30.15 850 25.1 24.9 76.8 25 4 39.1
12:05 1021 30.15 850 25.1 24.9 76.8 24 2.9 37.3
12:10 1021 30.15 850 25.1 24.9 76.8 24 3 37.4
12:15 1021 30.15 850 25.1 25.2 77.4 22 2.3 36.2
12:20 1021 30.15 850 25.1 26.2 79.1 20 2 35.6
12:25 1021 30.15 850 25.1 26.2 79.1 19 1.3 34.4
12:30 1021 30.15 850 25.1 26.3 79.3 20 1.8 35.2
12:35 1021 30.15 850 25.1 26.4 79.4 20 1.8 35.2
12:40 1021 30.15 850 25.1 27 80.5 20 2.2 35.9
12:45 1021 30.15 850 25.1 27.9 82.1 18 1.6 34.8
12:50 1021 30.15 850 25.1 27.8 82.1 18 1.9 35.4
12:55 1021 30.15 850 25.1 27.8 82 20 2.8 37
13:00 1021 30.15 850 25.1 27.7 81.9 19 2 35.5
13:05 1021 30.15 850 25.1 28.3 83 19 2.7 36.8
13:10 1021 30.15 850 25.1 28.4 83 19 2.6 36.7
13:15 1020 30.12 850 25.1 28.1 82.7 19 2.5 36.4
13:20 1020 30.12 850 25.1 28.1 82.7 17 1.2 34.1
13:25 1020 30.12 850 25.1 28.2 82.7 18 2.3 36.2
13:30 1020 30.12 849 25.07 27.8 82.1 15 -0.8 30.5
13:35 1020 30.12 849 25.07 28.2 82.8 15 -0.1 31.8
13:40 1020 30.12 849 25.07 28.5 83.3 15 -0.2 31.7
13:45 1020 30.12 849 25.07 28.6 83.5 16 0.5 32.9
13:50 1020 30.12 849 25.07 28.9 84 16 0.5 32.9
13:55 1020 30.12 849 25.07 29 84.2 15 0.2 32.4
14:00 1020 30.12 849 25.07 28.7 83.6 15 -0.3 31.5
14:05 1020 30.12 849 25.07 29.1 84.4 16 1.1 34
14:10 1020 30.12 849 25.07 29.4 85 13 -1.2 29.8
14:15 1020 30.12 849 25.07 29.6 85.3 13 -1.1 30
14:20 1020 30.12 849 25.07 29.3 84.7 13 -1.5 29.2
14:25 1020 30.12 849 25.07 29.9 85.9 12 -2.2 28.1
14:30 1020 30.12 849 25.07 30.4 86.6 11 -3 26.5
14:35 1020 30.12 849 25.07 29.4 85 13 -2 28.4
14:40 1020 30.12 849 25.07 29.9 85.7 12 -1.8 28.8
14:45 1020 30.12 849 25.07 30.3 86.6 12 -1.6 29.2
14:50 1020 30.12 849 25.07 30.2 86.4 12 -2.5 27.4
14:55 1020 30.12 849 25.07 30.2 86.3 12 -2.2 28
15:00 1020 30.12 849 25.07 30.4 86.8 12 -1.8 28.8
15:05 1020 30.12 849 25.07 30.6 87.1 12 -2 28.4
15:10 1020 30.12 849 25.07 30.4 86.7 13 -1 30.1
15:15 1020 30.12 849 25.07 30.1 86.1 12 -2.6 27.4
15:20 1020 30.12 849 25.07 30.2 86.4 12 -2.3 27.8
15:25 1020 30.12 849 25.07 30.8 87.4 11 -2.7 27.1
15:30 1020 30.12 849 25.07 30.3 86.6 12 -2.2 28.1
15:35 1020 30.12 849 25.07 30.4 86.8 12 -2.2 28
15:40 1020 30.12 849 25.07 30.6 87.1 13 -1 30.2
15:45 1020 30.12 849 25.07 30.2 86.4 11 -3.1 26.4
15:50 1019 30.09 849 25.07 30 85.9 12 -2.1 28.3
15:55 1019 30.09 849 25.07 29.6 85.3 12 -2.4 27.6
16:00 1019 30.09 849 25.07 30.4 86.7 11 -2.9 26.8
16:05 1019 30.09 849 25.07 30.6 87.1 11 -2.4 27.8
16:10 1019 30.09 849 25.07 30.4 86.8 11 -2.5 27.6
16:15 1019 30.09 849 25.07 30.9 87.6 11 -2.2 28.1
16:20 1019 30.09 849 25.07 31 87.8 11 -2.6 27.2
16:25 1019 30.09 849 25.07 29.9 85.9 12 -1.9 28.6
16:30 1019 30.09 848 25.04 29.8 85.6 12 -2.2 28.1
16:35 1019 30.09 848 25.04 29.8 85.7 12 -2.1 28.2
16:40 1019 30.09 848 25.04 30.3 86.5 12 -2.2 28
16:45 1019 30.09 848 25.04 30.6 87.1 11 -2.8 26.9
16:50 1019 30.09 848 25.04 30.1 86.2 12 -2.5 27.5
16:55 1019 30.09 848 25.04 29.6 85.2 12 -2.6 27.3
17:00 1019 30.09 848 25.04 30 86.1 12 -2.6 27.4
17:05 1019 30.09 848 25.04 30.6 87 11 -2.3 27.9
17:10 1019 30.09 848 25.04 30.3 86.5 12 -1.9 28.7
17:15 1019 30.09 848 25.04 30.1 86.1 12 -2.5 27.5
17:20 1019 30.09 848 25.04 30.2 86.4 11 -3.2 26.3
17:25 1019 30.09 848 25.04 30.1 86.1 12 -2.4 27.7
17:30 1019 30.09 848 25.04 30 86 12 -2.1 28.2
17:35 1019 30.09 848 25.04 29.9 85.8 12 -2.8 27
17:40 1019 30.09 848 25.04 30.5 86.9 11 -2.6 27.2
17:45 1019 30.09 848 25.04 30.7 87.2 11 -3.1 26.5
17:50 1019 30.09 848 25.04 30.3 86.5 13 -0.7 30.8
17:55 1019 30.09 848 25.04 29.8 85.6 13 -0.9 30.4
18:00 1019 30.09 848 25.04 29.4 84.9 14 -0.8 30.5
18:05 1019 30.09 848 25.04 29.3 84.7 14 -0.5 31
18:10 1019 30.09 848 25.04 29.4 85 13 -1.2 29.8
18:15 1019 30.09 848 25.04 29.3 84.7 12 -3 26.6
18:20 1019 30.09 848 25.04 29.3 84.8 13 -1.9 28.5
18:25 1019 30.09 848 25.04 29.3 84.8 13 -1.9 28.5
18:30 1019 30.09 848 25.04 29.1 84.3 13 -1.5 29.3
18:35 1019 30.09 848 25.04 28.6 83.4 15 -0.5 31
18:40 1019 30.09 848 25.04 28.4 83.1 13 -1.9 28.5
18:45 1018 30.06 848 25.04 28.4 83 14 -1.3 29.7
18:50 1018 30.06 848 25.04 28.2 82.8 14 -1.3 29.7
18:55 1018 30.06 848 25.04 28 82.5 15 -0.3 31.5
19:00 1018 30.06 848 25.04 27.6 81.6 19 1.9 35.4
19:05 1018 30.06 848 25.04 27.3 81.1 19 2.2 36
19:10 1018 30.06 848 25.04 27.1 80.7 17 0.4 32.6
19:15 1018 30.06 848 25.04 27 80.5 18 0.6 33.1
19:20 1018 30.06 848 25.04 26.8 80.2 19 1.3 34.3
19:25 1018 30.06 848 25.04 26.3 79.4 19 1 33.8
19:30 1018 30.06 848 25.04 25.8 78.5 21 1.8 35.2
19:35 1018 30.06 848 25.04 25.7 78.2 20 1.1 34
19:40 1018 30.06 848 25.04 25.6 78.1 19 0.7 33.3
19:45 1018 30.06 848 25.04 25.5 77.9 21 1.5 34.7
19:50 1018 30.06 848 25.04 25 77 20 0.7 33.2
19:55 1018 30.06 848 25.04 24.9 76.7 23 2.7 36.8
20:00 1018 30.06 848 25.04 24.3 75.8 24 2.6 36.6
20:05 1018 30.06 848 25.04 23.8 74.8 22 1.1 34.1
20:10 1019 30.09 848 25.04 24 75.2 23 1.6 35
20:15 1019 30.09 848 25.04 24.3 75.7 24 2.6 36.7
20:20 1019 30.09 848 25.04 24.5 76.2 25 3.5 38.2
20:25 1019 30.09 848 25.04 24.5 76.1 25 3.7 38.6
20:30 1019 30.09 848 25.04 24.4 76 26 4 39.1
20:35 1019 30.09 848 25.04 24.2 75.6 26 4 39.2
20:40 1019 30.09 848 25.04 24.1 75.3 27 4.2 39.6
20:45 1019 30.09 848 25.04 23.9 75 28 4.2 39.6
20:50 1019 30.09 848 25.04 23.7 74.7 28 4.2 39.6
20:55 1019 30.09 848 25.04 23.6 74.5 28 4.3 39.8
21:00 1019 30.09 848 25.04 23.5 74.3 28 4.2 39.6
21:05 1019 30.09 848 25.04 23.3 74 29 4.3 39.8
21:10 1019 30.09 848 25.04 23.3 73.9 29 4.3 39.7
21:15 1019 30.09 848 25.04 23.2 73.8 28 4.1 39.4
21:20 1019 30.09 848 25.04 23.2 73.8 28 4.2 39.5
21:25 1019 30.09 848 25.04 23.2 73.7 28 4.1 39.4
21:30 1019 30.09 848 25.04 23.2 73.7 28 4 39.3
21:35 1019 30.09 848 25.04 23.1 73.6 28 4 39.3
21:40 1019 30.09 848 25.04 23 73.4 29 4.1 39.3
21:45 1019 30.09 848 25.04 23 73.4 28 4 39.1
21:50 1019 30.09 848 25.04 23 73.3 28 3.9 39
21:55 1019 30.09 848 25.04 22.9 73.3 28 3.9 38.9
22:00 1019 30.09 848 25.04 22.8 73.1 29 4 39.2
22:05 1019 30.09 848 25.04 22.6 72.7 29 3.9 39
22:10 1019 30.09 848 25.04 22.5 72.5 29 3.9 39
22:15 1019 30.09 848 25.04 22.4 72.3 29 3.9 39
22:20 1019 30.09 848 25.04 22.2 72 30 3.8 38.9
22:25 1019 30.09 848 25.04 22.2 71.9 30 3.8 38.9
22:30 1019 30.09 848 25.04 22.1 71.8 30 3.8 38.8
22:35 1019 30.09 849 25.07 22.1 71.7 30 3.8 38.8
22:40 1019 30.09 848 25.04 21.9 71.5 30 3.8 38.8
22:45 1019 30.09 848 25.04 21.9 71.4 30 3.7 38.6
22:50 1019 30.09 848 25.04 21.9 71.4 30 3.7 38.7
22:55 1019 30.09 848 25.04 21.9 71.4 30 3.7 38.6
23:00 1019 30.09 848 25.04 21.8 71.2 30 3.8 38.8
23:05 1019 30.09 848 25.04 21.8 71.2 30 3.7 38.7
23:10 1019 30.09 849 25.07 21.7 71.1 30 3.6 38.5
23:15 1019 30.09 849 25.07 21.7 71 30 3.6 38.6
23:20 1019 30.09 848 25.04 21.6 70.9 30 3.6 38.4
23:25 1019 30.09 849 25.07 21.6 70.9 30 3.6 38.5
23:30 1019 30.09 849 25.07 21.7 71 30 3.6 38.5
23:35 1019 30.09 849 25.07 21.6 70.8 30 3.6 38.4
23:40 1019 30.09 849 25.07 21.5 70.7 30 3.6 38.4
23:45 1019 30.09 848 25.04 21.4 70.5 31 3.7 38.6
23:50 1019 30.09 849 25.07 21.3 70.3 31 3.7 38.6
23:55 1019 30.09 849 25.07 21.3 70.3 31 3.7 38.7
24:00 1020 30.12 849 25.07 21.1 70.1 31 3.7 38.7